KBDE

Baudette International Airport

Baudette, Minnesota, USA
METAR KBDE 191653Z AUTO 34012KT 3SM HZ FEW120 19/17 A2993 RMK AO2 SLP135 T01940167
Observed Flight Rules
Aug-19 @ 16:53 UTC (21 minutes ago) Marginal Visual Flight Rules
Wind Visibility Clouds Conditions
340° at 12 knots 3 miles
  • Few at 12,000' AGL
  • Haze
Temperatures Readings
Current 19°C / 66°F
Dewpoint 17°C / 63°F
Humidity 88%
Altimeter 29.93" Hg
Pressure 1013.5 hPa
Elevation 329
METAR KBDE 191653Z AUTO 34012KT 3SM HZ FEW120 19/17 A2993 RMK AO2 SLP135 T01940167
Observed Flight Rules
Aug-19 @ 16:53 UTC
(21 minutes ago)
MVFR
Wind Visibility
340° at 12 knots 3 miles
Clouds
  • Few at 12,000' AGL
Conditions
  • Haze
Temperature Dewpoint
19°C / 66°F 17°C / 63°F
Humidity Altimeter Pressure
88% 29.93" Hg 1013.5 hPa